createdAt,value
2023-04-24T00:00:06.388Z,532.00
2023-04-24T00:01:06.415Z,533.00
2023-04-24T00:02:06.588Z,530.00
2023-04-24T00:03:06.550Z,535.00
2023-04-24T00:04:06.583Z,535.00
2023-04-24T00:05:06.531Z,531.00
2023-04-24T00:06:06.546Z,536.00
2023-04-24T00:07:06.579Z,534.00
2023-04-24T00:08:06.593Z,535.00
2023-04-24T00:09:06.623Z,534.00
2023-04-24T00:10:06.648Z,535.00
2023-04-24T00:11:06.663Z,536.00
2023-04-24T00:12:06.679Z,539.00
2023-04-24T00:13:06.698Z,533.00
2023-04-24T00:14:06.724Z,536.00
2023-04-24T00:15:06.768Z,533.00
2023-04-24T00:16:06.876Z,534.00
2023-04-24T00:17:06.958Z,528.00
2023-04-24T00:18:06.868Z,535.00
2023-04-24T00:19:06.926Z,526.00
2023-04-24T00:20:06.901Z,535.00
2023-04-24T00:21:06.948Z,533.00
2023-04-24T00:22:06.976Z,531.00
2023-04-24T00:23:07.002Z,535.00
2023-04-24T00:24:07.033Z,535.00
2023-04-24T00:25:07.081Z,540.00
2023-04-24T00:26:07.117Z,537.00
2023-04-24T00:27:07.127Z,538.00
2023-04-24T00:28:07.151Z,533.00
2023-04-24T00:29:07.164Z,531.00
2023-04-24T00:30:07.209Z,532.00
2023-04-24T00:31:07.222Z,531.00
2023-04-24T00:32:07.274Z,532.00
2023-04-24T00:33:07.283Z,532.00
2023-04-24T00:34:07.305Z,534.00
2023-04-24T00:35:07.338Z,526.00
2023-04-24T00:36:07.389Z,527.00
2023-04-24T00:37:07.426Z,534.00
2023-04-24T00:38:07.465Z,528.00
2023-04-24T00:39:07.512Z,534.00
2023-04-24T00:40:07.526Z,533.00
2023-04-24T00:41:07.565Z,531.00
2023-04-24T00:42:07.572Z,529.00
2023-04-24T00:43:08.902Z,528.00
2023-04-24T00:44:07.553Z,531.00
2023-04-24T00:45:07.525Z,535.00
2023-04-24T00:46:07.531Z,530.00
2023-04-24T00:47:07.459Z,532.00
2023-04-24T00:48:07.459Z,528.00
2023-04-24T00:49:07.395Z,531.00
2023-04-24T00:50:07.361Z,533.00
2023-04-24T00:51:07.338Z,529.00
2023-04-24T00:52:07.297Z,532.00
2023-04-24T00:53:07.288Z,532.00
2023-04-24T00:54:07.252Z,537.00
2023-04-24T00:55:07.226Z,529.00
2023-04-24T00:56:07.206Z,529.00
2023-04-24T00:57:07.174Z,531.00
2023-04-24T00:58:07.143Z,532.00
2023-04-24T00:59:07.114Z,526.00
2023-04-24T01:00:07.086Z,530.00
2023-04-24T01:01:07.096Z,527.00
2023-04-24T01:02:07.069Z,531.00
2023-04-24T01:03:07.134Z,532.00
2023-04-24T01:04:07.134Z,526.00
2023-04-24T01:05:06.939Z,531.00
2023-04-24T01:06:06.889Z,524.00
2023-04-24T01:07:06.872Z,522.00
2023-04-24T01:08:06.843Z,533.00
2023-04-24T01:09:06.816Z,529.00
2023-04-24T01:10:06.791Z,524.00
2023-04-24T01:11:06.771Z,529.00
2023-04-24T01:12:06.745Z,527.00
2023-04-24T01:13:06.702Z,528.00
2023-04-24T01:14:06.682Z,529.00
2023-04-24T01:15:06.650Z,522.00
2023-04-24T01:16:06.675Z,520.00
2023-04-24T01:17:06.604Z,526.00
2023-04-24T01:18:06.581Z,522.00
2023-04-24T01:19:06.552Z,530.00
2023-04-24T01:20:06.521Z,527.00
2023-04-24T01:21:06.484Z,524.00
2023-04-24T01:22:06.457Z,522.00
2023-04-24T01:23:06.419Z,523.00
2023-04-24T01:24:06.414Z,528.00
2023-04-24T01:25:06.447Z,528.00
2023-04-24T01:26:06.493Z,523.00
2023-04-24T01:27:06.521Z,530.00
2023-04-24T01:28:06.546Z,525.00
2023-04-24T01:29:06.588Z,523.00
2023-04-24T01:30:06.615Z,525.00
2023-04-24T01:31:06.672Z,529.00
2023-04-24T01:32:06.642Z,527.00
2023-04-24T01:33:06.656Z,525.00
2023-04-24T01:34:07.562Z,530.00
2023-04-24T01:35:06.741Z,522.00
2023-04-24T01:36:06.749Z,522.00
2023-04-24T01:37:06.759Z,520.00
2023-04-24T01:38:06.777Z,524.00
2023-04-24T01:39:06.779Z,521.00
2023-04-24T01:40:06.792Z,521.00
2023-04-24T01:41:06.813Z,523.00
2023-04-24T01:42:06.809Z,521.00
2023-04-24T01:43:06.810Z,521.00
2023-04-24T01:44:06.833Z,527.00
2023-04-24T01:45:06.884Z,525.00
2023-04-24T01:46:06.901Z,523.00
2023-04-24T01:47:06.891Z,522.00
2023-04-24T01:48:06.949Z,528.00
2023-04-24T01:49:06.954Z,525.00
2023-04-24T01:50:06.918Z,528.00
2023-04-24T01:51:06.936Z,524.00
2023-04-24T01:52:06.933Z,528.00
2023-04-24T01:53:06.940Z,529.00
2023-04-24T01:54:06.974Z,532.00
2023-04-24T01:55:06.989Z,522.00
2023-04-24T01:56:07.021Z,526.00
2023-04-24T01:57:07.024Z,527.00
2023-04-24T01:58:07.046Z,526.00
2023-04-24T01:59:07.056Z,529.00
2023-04-24T02:00:07.058Z,520.00
2023-04-24T02:01:07.204Z,522.00
2023-04-24T02:02:07.212Z,533.00
2023-04-24T02:03:07.212Z,523.00
2023-04-24T02:04:07.328Z,529.00
2023-04-24T02:05:07.200Z,528.00
2023-04-24T02:06:07.190Z,529.00
2023-04-24T02:07:07.206Z,526.00
2023-04-24T02:08:07.258Z,526.00
2023-04-24T02:09:07.324Z,529.00
2023-04-24T02:10:07.291Z,524.00
2023-04-24T02:11:07.314Z,526.00
2023-04-24T02:12:07.324Z,524.00
2023-04-24T02:13:07.354Z,527.00
2023-04-24T02:14:07.360Z,528.00
2023-04-24T02:15:07.384Z,525.00
2023-04-24T02:16:07.449Z,532.00
2023-04-24T02:17:07.442Z,530.00
2023-04-24T02:18:07.475Z,532.00
2023-04-24T02:19:07.508Z,529.00
2023-04-24T02:20:07.509Z,525.00
2023-04-24T02:21:07.523Z,529.00
2023-04-24T02:22:07.530Z,524.00
2023-04-24T02:23:07.549Z,522.00
2023-04-24T02:24:07.568Z,523.00
2023-04-24T02:25:07.591Z,525.00
2023-04-24T02:26:07.592Z,531.00
2023-04-24T02:27:07.638Z,526.00
2023-04-24T02:28:07.656Z,527.00
2023-04-24T02:29:07.660Z,523.00
2023-04-24T02:30:07.682Z,523.00
2023-04-24T02:31:07.720Z,524.00
2023-04-24T02:32:07.779Z,522.00
2023-04-24T02:33:07.703Z,520.00
2023-04-24T02:34:08.585Z,524.00
2023-04-24T02:35:07.743Z,526.00
2023-04-24T02:36:07.694Z,528.00
2023-04-24T02:37:07.703Z,522.00
2023-04-24T02:38:07.716Z,533.00
2023-04-24T02:39:07.706Z,520.00
2023-04-24T02:40:07.707Z,520.00
2023-04-24T02:41:07.739Z,518.00
2023-04-24T02:42:07.747Z,519.00
2023-04-24T02:43:07.755Z,517.00
2023-04-24T02:44:07.770Z,517.00
2023-04-24T02:45:07.760Z,514.00
2023-04-24T02:46:07.853Z,512.00
2023-04-24T02:47:07.772Z,524.00
2023-04-24T02:48:07.760Z,513.00
2023-04-24T02:49:07.752Z,514.00
2023-04-24T02:50:07.729Z,519.00
2023-04-24T02:51:07.765Z,520.00
2023-04-24T02:52:07.680Z,518.00
2023-04-24T02:53:07.699Z,517.00
2023-04-24T02:54:07.679Z,519.00
2023-04-24T02:55:07.697Z,510.00
2023-04-24T02:56:07.707Z,517.00
2023-04-24T02:57:07.718Z,520.00
2023-04-24T02:58:07.728Z,521.00
2023-04-24T02:59:07.729Z,523.00
2023-04-24T03:00:07.734Z,522.00
2023-04-24T03:01:07.808Z,517.00
2023-04-24T03:02:07.803Z,525.00
2023-04-24T03:03:07.885Z,519.00
2023-04-24T03:04:08.036Z,522.00
2023-04-24T03:05:07.785Z,517.00
2023-04-24T03:06:07.805Z,515.00
2023-04-24T03:07:07.794Z,518.00
2023-04-24T03:08:07.778Z,520.00
2023-04-24T03:09:07.778Z,518.00
2023-04-24T03:10:07.783Z,518.00
2023-04-24T03:11:07.806Z,519.00
2023-04-24T03:12:07.800Z,527.00
2023-04-24T03:13:07.817Z,522.00
2023-04-24T03:14:07.846Z,515.00
2023-04-24T03:15:07.841Z,513.00
2023-04-24T03:16:07.869Z,520.00
2023-04-24T03:17:07.841Z,515.00
2023-04-24T03:18:07.842Z,517.00
2023-04-24T03:19:07.854Z,516.00
2023-04-24T03:20:07.894Z,516.00
2023-04-24T03:21:07.899Z,514.00
2023-04-24T03:22:07.905Z,525.00
2023-04-24T03:23:07.922Z,521.00
2023-04-24T03:24:07.961Z,517.00
2023-04-24T03:25:07.962Z,517.00
2023-04-24T03:26:07.977Z,513.00
2023-04-24T03:27:08.005Z,515.00
2023-04-24T03:28:07.964Z,516.00
2023-04-24T03:29:07.959Z,516.00
2023-04-24T03:30:07.959Z,509.00
2023-04-24T03:31:08.005Z,514.00
2023-04-24T03:32:07.977Z,518.00
2023-04-24T03:33:07.990Z,517.00
2023-04-24T03:34:07.987Z,516.00
2023-04-24T03:35:07.988Z,522.00
2023-04-24T03:36:07.993Z,513.00
2023-04-24T03:37:07.996Z,513.00
2023-04-24T03:38:07.994Z,513.00
2023-04-24T03:39:08.011Z,519.00
2023-04-24T03:40:07.999Z,512.00
2023-04-24T03:41:07.996Z,514.00
2023-04-24T03:42:07.991Z,514.00
2023-04-24T03:43:07.985Z,516.00
2023-04-24T03:44:08.016Z,510.00
2023-04-24T03:45:08.014Z,512.00
2023-04-24T03:46:08.123Z,514.00
2023-04-24T03:47:08.041Z,510.00
2023-04-24T03:48:08.047Z,516.00
2023-04-24T03:49:08.048Z,512.00
2023-04-24T03:50:08.068Z,508.00
2023-04-24T03:51:08.094Z,518.00
2023-04-24T03:52:08.081Z,510.00
2023-04-24T03:53:08.082Z,509.00
2023-04-24T03:54:08.107Z,517.00
2023-04-24T03:55:08.121Z,509.00
2023-04-24T03:56:08.129Z,512.00
2023-04-24T03:57:08.151Z,513.00
2023-04-24T03:58:08.176Z,511.00
2023-04-24T03:59:08.198Z,510.00
2023-04-24T04:00:08.232Z,515.00
2023-04-24T04:01:08.258Z,509.00
2023-04-24T04:02:08.387Z,516.00
2023-04-24T04:03:08.627Z,507.00
2023-04-24T04:04:08.384Z,518.00
2023-04-24T04:05:08.411Z,521.00
2023-04-24T04:06:08.340Z,513.00
2023-04-24T04:07:08.358Z,514.00
2023-04-24T04:08:08.365Z,517.00
2023-04-24T04:09:08.392Z,515.00
2023-04-24T04:10:08.434Z,507.00
2023-04-24T04:11:08.461Z,510.00
2023-04-24T04:12:08.463Z,506.00
2023-04-24T04:13:08.512Z,511.00
2023-04-24T04:14:08.530Z,510.00
2023-04-24T04:15:08.539Z,509.00
2023-04-24T04:16:08.588Z,509.00
2023-04-24T04:17:08.609Z,512.00
2023-04-24T04:18:08.663Z,510.00
2023-04-24T04:19:08.674Z,512.00
2023-04-24T04:20:08.717Z,512.00
2023-04-24T04:21:08.762Z,509.00
2023-04-24T04:22:08.790Z,514.00
2023-04-24T04:23:08.826Z,513.00
2023-04-24T04:24:08.832Z,509.00
2023-04-24T04:25:08.852Z,511.00
2023-04-24T04:26:08.878Z,509.00
2023-04-24T04:27:08.907Z,509.00
2023-04-24T04:28:08.940Z,507.00
2023-04-24T04:29:08.979Z,512.00
2023-04-24T04:30:08.995Z,514.00
2023-04-24T04:31:09.031Z,512.00
2023-04-24T04:32:09.161Z,515.00
2023-04-24T04:33:09.208Z,506.00
2023-04-24T04:34:09.101Z,505.00
2023-04-24T04:35:09.116Z,507.00
2023-04-24T04:36:09.142Z,510.00
2023-04-24T04:37:09.165Z,507.00
2023-04-24T04:38:09.188Z,516.00
2023-04-24T04:39:09.202Z,507.00
2023-04-24T04:40:09.207Z,507.00
2023-04-24T04:41:09.227Z,512.00
2023-04-24T04:42:09.250Z,510.00
2023-04-24T04:43:09.276Z,509.00
2023-04-24T04:44:09.308Z,505.00
2023-04-24T04:45:09.342Z,508.00
2023-04-24T04:46:09.515Z,507.00
2023-04-24T04:47:09.409Z,509.00
2023-04-24T04:48:09.432Z,510.00
2023-04-24T04:49:09.472Z,505.00
2023-04-24T04:50:09.499Z,503.00
2023-04-24T04:51:09.548Z,503.00
2023-04-24T04:52:09.565Z,503.00
2023-04-24T04:53:09.604Z,505.00
2023-04-24T04:54:09.626Z,509.00
2023-04-24T04:55:09.660Z,503.00
2023-04-24T04:56:09.699Z,511.00
2023-04-24T04:57:09.721Z,507.00
2023-04-24T04:58:09.723Z,507.00
2023-04-24T04:59:09.759Z,506.00
2023-04-24T05:00:09.792Z,509.00
2023-04-24T05:01:09.855Z,506.00
2023-04-24T05:02:09.967Z,501.00
2023-04-24T05:03:20.560Z,509.00
2023-04-24T05:04:11.069Z,509.00
2023-04-24T05:05:09.943Z,511.00
2023-04-24T05:06:09.791Z,515.00
2023-04-24T05:07:09.762Z,520.00
2023-04-24T05:08:19.750Z,515.00
2023-04-24T05:09:10.692Z,510.00
2023-04-24T05:10:09.660Z,511.00
2023-04-24T05:11:09.645Z,513.00
2023-04-24T05:12:09.622Z,516.00
2023-04-24T05:13:09.566Z,526.00
2023-04-24T05:14:09.557Z,534.00
2023-04-24T05:15:09.556Z,549.00
2023-04-24T05:16:09.533Z,560.00
2023-04-24T05:17:09.528Z,556.00
2023-04-24T05:18:09.463Z,575.00
2023-04-24T05:19:09.437Z,589.00
2023-04-24T05:20:09.388Z,592.00
2023-04-24T05:21:09.360Z,606.00
2023-04-24T05:22:09.352Z,617.00
2023-04-24T05:23:09.310Z,634.00
2023-04-24T05:24:09.282Z,661.00
2023-04-24T05:25:09.252Z,697.00
2023-04-24T05:26:10.193Z,740.00
2023-04-24T05:27:09.237Z,786.00
2023-04-24T05:28:11.200Z,855.00
2023-04-24T05:29:09.177Z,856.00
2023-04-24T05:30:09.164Z,866.00
2023-04-24T05:31:09.219Z,860.00
2023-04-24T05:32:09.092Z,864.00
2023-04-24T05:33:09.129Z,829.00
2023-04-24T05:34:09.057Z,756.00
2023-04-24T05:35:09.015Z,716.00
2023-04-24T05:36:08.963Z,653.00
2023-04-24T05:37:08.999Z,650.00
2023-04-24T05:38:08.911Z,647.00
2023-04-24T05:39:08.881Z,641.00
2023-04-24T05:40:08.856Z,632.00
2023-04-24T05:41:08.830Z,636.00
2023-04-24T05:42:08.787Z,625.00
2023-04-24T05:43:08.773Z,613.00
2023-04-24T05:44:08.798Z,608.00
2023-04-24T05:45:08.837Z,601.00
2023-04-24T05:46:08.902Z,593.00
2023-04-24T05:47:08.880Z,588.00
2023-04-24T05:48:08.920Z,584.00
2023-04-24T05:49:08.930Z,583.00
2023-04-24T05:50:08.943Z,584.00
2023-04-24T05:51:08.959Z,586.00
2023-04-24T05:52:08.931Z,589.00
2023-04-24T05:53:09.611Z,584.00
2023-04-24T05:54:08.966Z,583.00
2023-04-24T05:55:08.960Z,586.00
2023-04-24T05:56:08.963Z,590.00
2023-04-24T05:57:08.975Z,584.00
2023-04-24T05:58:08.966Z,592.00
2023-04-24T05:59:08.945Z,583.00
2023-04-24T06:00:08.950Z,584.00
2023-04-24T06:01:08.924Z,590.00
2023-04-24T06:02:11.879Z,586.00
2023-04-24T06:03:09.056Z,590.00
2023-04-24T06:04:08.964Z,589.00
2023-04-24T06:05:08.821Z,582.00
2023-04-24T06:06:08.779Z,579.00
2023-04-24T06:07:08.743Z,577.00
2023-04-24T06:08:08.705Z,574.00
2023-04-24T06:09:08.674Z,573.00
2023-04-24T06:10:08.676Z,572.00
2023-04-24T06:11:08.616Z,577.00
2023-04-24T06:12:08.579Z,577.00
2023-04-24T06:13:08.559Z,581.00
2023-04-24T06:14:08.528Z,584.00
2023-04-24T06:15:08.493Z,589.00
2023-04-24T06:16:08.789Z,581.00
2023-04-24T06:17:08.445Z,578.00
2023-04-24T06:18:08.421Z,577.00
2023-04-24T06:19:08.402Z,577.00
2023-04-24T06:20:08.353Z,580.00
2023-04-24T06:21:08.331Z,598.00
2023-04-24T06:22:10.748Z,629.00
2023-04-24T06:23:08.256Z,681.00
2023-04-24T06:24:08.228Z,734.00
2023-04-24T06:25:08.218Z,736.00
2023-04-24T06:26:08.365Z,758.00
2023-04-24T06:27:08.159Z,800.00
2023-04-24T06:28:08.133Z,800.00
2023-04-24T06:29:08.109Z,657.00
2023-04-24T06:30:08.085Z,577.00
2023-04-24T06:31:08.065Z,493.00
2023-04-24T06:32:08.090Z,470.00
2023-04-24T06:33:19.317Z,470.00
2023-04-24T06:34:09.000Z,471.00
2023-04-24T06:35:07.976Z,474.00
2023-04-24T06:36:07.963Z,477.00
2023-04-24T06:37:07.945Z,474.00
2023-04-24T06:38:07.922Z,498.00
2023-04-24T06:39:07.948Z,532.00
2023-04-24T06:40:08.733Z,584.00
2023-04-24T06:41:07.850Z,618.00
2023-04-24T06:42:07.819Z,651.00
2023-04-24T06:43:07.791Z,702.00
2023-04-24T06:44:07.770Z,760.00
2023-04-24T06:45:07.745Z,769.00
2023-04-24T06:46:07.867Z,813.00
2023-04-24T06:47:07.696Z,819.00
2023-04-24T06:48:07.770Z,830.00
2023-04-24T06:49:07.647Z,839.00
2023-04-24T06:50:07.634Z,839.00
2023-04-24T06:51:07.634Z,848.00
2023-04-24T06:52:07.629Z,856.00
2023-04-24T06:53:07.885Z,863.00
2023-04-24T06:54:07.685Z,853.00
2023-04-24T06:55:07.649Z,852.00
2023-04-24T06:56:07.650Z,864.00
2023-04-24T06:57:08.630Z,865.00
2023-04-24T06:58:07.592Z,860.00
2023-04-24T06:59:07.574Z,859.00
2023-04-24T07:00:07.531Z,840.00
2023-04-24T07:01:07.566Z,847.00
2023-04-24T07:02:07.563Z,834.00
2023-04-24T07:03:07.590Z,852.00
2023-04-24T07:04:07.620Z,836.00
2023-04-24T07:05:07.413Z,827.00
2023-04-24T07:06:07.420Z,813.00
2023-04-24T07:07:07.375Z,871.00
2023-04-24T07:08:07.350Z,882.00
2023-04-24T07:09:07.342Z,993.00
2023-04-24T07:10:07.313Z,994.00
2023-04-24T07:11:07.303Z,933.00
2023-04-24T07:12:07.335Z,901.00
2023-04-24T07:13:07.332Z,931.00
2023-04-24T07:14:07.312Z,996.00
2023-04-24T07:15:07.312Z,1029.00
2023-04-24T07:16:07.338Z,993.00
2023-04-24T07:17:07.312Z,1020.00
2023-04-24T07:18:07.330Z,1065.00
2023-04-24T07:19:07.269Z,1090.00
2023-04-24T07:20:12.255Z,1128.00
2023-04-24T07:21:07.260Z,1129.00
2023-04-24T07:22:07.215Z,1132.00
2023-04-24T07:23:07.186Z,1145.00
2023-04-24T07:24:07.169Z,1174.00
2023-04-24T07:25:07.128Z,1259.00
2023-04-24T07:26:07.131Z,1302.00
2023-04-24T07:27:07.064Z,1321.00
2023-04-24T07:28:07.071Z,1284.00
2023-04-24T07:29:07.003Z,1255.00
2023-04-24T07:30:06.969Z,1201.00
2023-04-24T07:31:06.993Z,1150.00
2023-04-24T07:32:06.965Z,1077.00
2023-04-24T07:33:06.929Z,1043.00
2023-04-24T07:34:06.885Z,1020.00
2023-04-24T07:35:06.822Z,1004.00
2023-04-24T07:36:06.785Z,970.00
2023-04-24T07:37:06.749Z,947.00
2023-04-24T07:38:06.721Z,929.00
2023-04-24T07:39:06.680Z,906.00
2023-04-24T07:40:06.660Z,897.00
2023-04-24T07:41:06.626Z,896.00
2023-04-24T07:42:06.603Z,907.00
2023-04-24T07:43:06.553Z,911.00
2023-04-24T07:44:06.526Z,891.00
2023-04-24T07:45:06.483Z,906.00
2023-04-24T07:46:08.824Z,925.00
2023-04-24T07:47:06.548Z,927.00
2023-04-24T07:48:06.577Z,915.00
2023-04-24T07:49:13.168Z,911.00
2023-04-24T07:50:07.472Z,912.00
2023-04-24T07:51:06.429Z,912.00
2023-04-24T07:52:06.407Z,914.00
2023-04-24T07:53:06.388Z,916.00
2023-04-24T07:54:06.338Z,910.00
2023-04-24T07:55:06.300Z,905.00
2023-04-24T07:56:06.292Z,900.00
2023-04-24T07:57:06.253Z,901.00
2023-04-24T07:58:06.202Z,896.00
2023-04-24T07:59:06.200Z,887.00
2023-04-24T08:00:06.139Z,879.00
2023-04-24T08:01:06.116Z,878.00
2023-04-24T08:02:06.084Z,872.00
2023-04-24T08:03:06.174Z,864.00
2023-04-24T08:04:06.188Z,842.00
2023-04-24T08:05:06.137Z,861.00
2023-04-24T08:06:06.011Z,861.00
2023-04-24T08:07:05.946Z,883.00
2023-04-24T08:08:05.904Z,871.00
2023-04-24T08:09:05.898Z,882.00
2023-04-24T08:10:05.902Z,905.00
2023-04-24T08:11:05.884Z,934.00
2023-04-24T08:12:05.857Z,982.00
2023-04-24T08:13:05.845Z,995.00
2023-04-24T08:14:05.819Z,1040.00
2023-04-24T08:15:07.786Z,1044.00
2023-04-24T08:16:05.840Z,1115.00
2023-04-24T08:17:06.781Z,1116.00
2023-04-24T08:18:05.774Z,1117.00
2023-04-24T08:19:08.277Z,1116.00
2023-04-24T08:20:05.885Z,1123.00
2023-04-24T08:21:05.905Z,1130.00
2023-04-24T08:22:05.857Z,1095.00
2023-04-24T08:23:06.779Z,880.00
2023-04-24T08:24:05.813Z,663.00
2023-04-24T08:25:05.794Z,645.00
2023-04-24T08:26:05.754Z,650.00
2023-04-24T08:27:05.734Z,646.00
2023-04-24T08:28:05.701Z,649.00
2023-04-24T08:29:05.679Z,652.00
2023-04-24T08:30:05.645Z,652.00
2023-04-24T08:31:05.608Z,653.00
2023-04-24T08:32:05.670Z,655.00
2023-04-24T08:33:05.585Z,658.00
2023-04-24T08:34:05.503Z,673.00
2023-04-24T08:35:05.472Z,679.00
2023-04-24T08:36:05.438Z,713.00
2023-04-24T08:37:05.417Z,727.00
2023-04-24T08:38:05.372Z,757.00
2023-04-24T08:39:05.436Z,773.00
2023-04-24T08:40:05.320Z,796.00
2023-04-24T08:41:05.349Z,787.00
2023-04-24T08:42:05.793Z,795.00
2023-04-24T08:43:05.407Z,810.00
2023-04-24T08:44:05.390Z,824.00
2023-04-24T08:45:08.275Z,821.00
2023-04-24T08:46:08.453Z,823.00
2023-04-24T08:47:06.309Z,824.00
2023-04-24T08:48:05.910Z,830.00
2023-04-24T08:49:05.217Z,836.00
2023-04-24T08:50:05.172Z,855.00
2023-04-24T08:51:05.144Z,877.00
2023-04-24T08:52:05.111Z,886.00
2023-04-24T08:53:05.318Z,894.00
2023-04-24T08:54:05.034Z,899.00
2023-04-24T08:55:04.998Z,895.00
2023-04-24T08:56:04.953Z,907.00
2023-04-24T08:57:05.024Z,932.00
2023-04-24T08:58:04.893Z,924.00
2023-04-24T08:59:04.858Z,915.00
2023-04-24T09:00:04.824Z,930.00
2023-04-24T09:01:04.799Z,941.00
2023-04-24T09:02:04.879Z,963.00
2023-04-24T09:03:05.008Z,973.00
2023-04-24T09:04:04.879Z,1001.00
2023-04-24T09:05:04.802Z,981.00
2023-04-24T09:06:04.649Z,987.00
2023-04-24T09:07:04.608Z,962.00
2023-04-24T09:08:04.583Z,955.00
2023-04-24T09:09:05.306Z,957.00
2023-04-24T09:10:04.506Z,966.00
2023-04-24T09:11:04.475Z,970.00
2023-04-24T09:12:04.459Z,986.00
2023-04-24T09:13:04.399Z,991.00
2023-04-24T09:14:04.366Z,997.00
2023-04-24T09:15:04.328Z,990.00
2023-04-24T09:16:04.305Z,1035.00
2023-04-24T09:17:04.330Z,1114.00
2023-04-24T09:18:04.249Z,1140.00
2023-04-24T09:19:05.195Z,1142.00
2023-04-24T09:20:04.214Z,1153.00
2023-04-24T09:21:04.168Z,1145.00
2023-04-24T09:22:04.101Z,1161.00
2023-04-24T09:23:04.059Z,1185.00
2023-04-24T09:24:04.030Z,1168.00
2023-04-24T09:25:03.989Z,906.00
2023-04-24T09:26:03.962Z,665.00
2023-04-24T09:27:03.938Z,587.00
2023-04-24T09:28:03.909Z,518.00
2023-04-24T09:29:03.880Z,528.00
2023-04-24T09:30:03.914Z,535.00
2023-04-24T09:31:03.833Z,549.00
2023-04-24T09:32:03.830Z,605.00
2023-04-24T09:33:03.767Z,663.00
2023-04-24T09:34:05.767Z,800.00
2023-04-24T09:35:03.698Z,900.00
2023-04-24T09:36:03.663Z,960.00
2023-04-24T09:37:03.636Z,999.00
2023-04-24T09:38:03.580Z,1023.00
2023-04-24T09:39:03.580Z,1041.00
2023-04-24T09:40:03.515Z,1040.00
2023-04-24T09:41:03.480Z,1062.00
2023-04-24T09:42:03.455Z,1082.00
2023-04-24T09:43:03.400Z,1081.00
2023-04-24T09:44:03.362Z,1081.00
2023-04-24T09:45:14.198Z,1109.00
2023-04-24T09:46:04.329Z,1110.00
2023-04-24T09:47:03.256Z,1110.00
2023-04-24T09:48:03.300Z,1127.00
2023-04-24T09:49:03.181Z,852.00
2023-04-24T09:50:03.160Z,654.00
2023-04-24T09:51:04.838Z,600.00
2023-04-24T09:52:03.086Z,516.00
2023-04-24T09:53:03.074Z,505.00
2023-04-24T09:54:03.026Z,465.00
2023-04-24T09:55:02.997Z,448.00
2023-04-24T09:56:02.999Z,449.00
2023-04-24T09:57:02.948Z,442.00
2023-04-24T09:58:02.931Z,444.00
2023-04-24T09:59:02.887Z,481.00
2023-04-24T10:00:02.877Z,578.00
2023-04-24T10:01:02.884Z,641.00
2023-04-24T10:02:02.966Z,750.00
2023-04-24T10:03:02.912Z,862.00
2023-04-24T10:04:02.877Z,1003.00
2023-04-24T10:05:02.894Z,1139.00
2023-04-24T10:06:02.755Z,1260.00
2023-04-24T10:07:02.663Z,1400.00
2023-04-24T10:08:02.638Z,1531.00
2023-04-24T10:09:02.629Z,1505.00
2023-04-24T10:10:02.664Z,1589.00
2023-04-24T10:11:02.662Z,1597.00
2023-04-24T10:12:02.726Z,1642.00
2023-04-24T10:13:02.761Z,1695.00
2023-04-24T10:14:02.782Z,1746.00
2023-04-24T10:15:02.799Z,1775.00
2023-04-24T10:16:02.813Z,1831.00
2023-04-24T10:17:02.809Z,1855.00
2023-04-24T10:18:02.833Z,1867.00
2023-04-24T10:19:02.824Z,1891.00
2023-04-24T10:20:02.762Z,1985.00
2023-04-24T10:21:02.779Z,2138.00
2023-04-24T10:22:02.766Z,2244.00
2023-04-24T10:23:02.736Z,2236.00
2023-04-24T10:24:02.729Z,2255.00
2023-04-24T10:25:02.720Z,2253.00
2023-04-24T10:26:02.705Z,2289.00
2023-04-24T10:27:02.714Z,2266.00
2023-04-24T10:28:02.694Z,2216.00
2023-04-24T10:29:02.682Z,2186.00
2023-04-24T10:30:02.630Z,2180.00
2023-04-24T10:31:02.748Z,2179.00
2023-04-24T10:32:02.587Z,2204.00
2023-04-24T10:33:02.570Z,2249.00
2023-04-24T10:34:02.509Z,2199.00
2023-04-24T10:35:02.485Z,2165.00
2023-04-24T10:36:02.503Z,2148.00
2023-04-24T10:37:02.459Z,2170.00
2023-04-24T10:38:02.423Z,2233.00
2023-04-24T10:39:03.327Z,2225.00
2023-04-24T10:40:02.409Z,2162.00
2023-04-24T10:41:02.398Z,2170.00
2023-04-24T10:42:02.374Z,2220.00
2023-04-24T10:43:02.389Z,2215.00
2023-04-24T10:44:02.361Z,2281.00
2023-04-24T10:45:02.347Z,2288.00
2023-04-24T10:46:02.349Z,2239.00
2023-04-24T10:47:02.446Z,2217.00
2023-04-24T10:48:04.313Z,2271.00
2023-04-24T10:49:02.254Z,2281.00
2023-04-24T10:50:02.211Z,2306.00
2023-04-24T10:51:02.160Z,2263.00
2023-04-24T10:52:02.131Z,2287.00
2023-04-24T10:53:02.094Z,2296.00
2023-04-24T10:54:02.070Z,2301.00
2023-04-24T10:55:02.010Z,2285.00
2023-04-24T10:56:01.964Z,2262.00
2023-04-24T10:57:01.960Z,2258.00
2023-04-24T10:58:01.911Z,2281.00
2023-04-24T10:59:01.875Z,2279.00
2023-04-24T11:00:01.868Z,2228.00
2023-04-24T11:01:01.830Z,2254.00
2023-04-24T11:02:01.769Z,2234.00
2023-04-24T11:03:01.872Z,2235.00
2023-04-24T11:04:01.805Z,2194.00
2023-04-24T11:05:01.649Z,2172.00
2023-04-24T11:06:01.614Z,2215.00
2023-04-24T11:07:01.601Z,2293.00
2023-04-24T11:08:01.565Z,2322.00
2023-04-24T11:09:01.531Z,2352.00
2023-04-24T11:10:01.502Z,2368.00
2023-04-24T11:11:01.468Z,2403.00
2023-04-24T11:12:01.438Z,2452.00
2023-04-24T11:13:01.401Z,2491.00
2023-04-24T11:14:01.354Z,2519.00
2023-04-24T11:15:01.668Z,2520.00
2023-04-24T11:16:01.340Z,2532.00
2023-04-24T11:17:02.547Z,2534.00
2023-04-24T11:18:01.221Z,2537.00
2023-04-24T11:19:01.114Z,2548.00
2023-04-24T11:20:04.716Z,2583.00
2023-04-24T11:21:02.044Z,2536.00
2023-04-24T11:22:01.002Z,2553.00
2023-04-24T11:23:00.977Z,2597.00
2023-04-24T11:24:00.912Z,2632.00
2023-04-24T11:25:01.004Z,2645.00
2023-04-24T11:26:00.826Z,2597.00
2023-04-24T11:27:00.784Z,2501.00
2023-04-24T11:28:00.734Z,2468.00
2023-04-24T11:29:00.710Z,2475.00
2023-04-24T11:30:01.072Z,2446.00
2023-04-24T11:31:00.660Z,2434.00
2023-04-24T11:32:00.699Z,2409.00
2023-04-24T11:33:00.731Z,2406.00
2023-04-24T11:34:00.719Z,2383.00
2023-04-24T11:35:00.742Z,2359.00
2023-04-24T11:36:00.757Z,2329.00
2023-04-24T11:37:00.790Z,2305.00
2023-04-24T11:39:00.771Z,2292.00
2023-04-24T11:40:01.202Z,2285.00
2023-04-24T11:41:00.675Z,2265.00
2023-04-24T11:42:00.628Z,2261.00
2023-04-24T11:43:00.583Z,2247.00
2023-04-24T11:44:00.541Z,2210.00
2023-04-24T11:45:00.727Z,2218.00
2023-04-24T11:46:00.513Z,2185.00
2023-04-24T11:47:00.425Z,2168.00
2023-04-24T11:48:00.457Z,2170.00
2023-04-24T11:49:00.354Z,2143.00
2023-04-24T11:50:00.802Z,2148.00
2023-04-24T11:51:00.374Z,2136.00
2023-04-24T11:52:01.240Z,2155.00
2023-04-24T11:53:00.220Z,2157.00
2023-04-24T11:54:04.111Z,2172.00
2023-04-24T11:55:00.527Z,2173.00
2023-04-24T11:56:00.219Z,2174.00
2023-04-24T11:57:00.029Z,2183.00
2023-04-24T11:58:00.009Z,2195.00
2023-04-24T11:58:59.968Z,2209.00
2023-04-24T12:00:00.051Z,2236.00
2023-04-24T12:00:59.879Z,2237.00
2023-04-24T12:01:59.870Z,2254.00
2023-04-24T12:02:59.946Z,2265.00
2023-04-24T12:03:59.954Z,2249.00
2023-04-24T12:05:00.061Z,2225.00
2023-04-24T12:05:59.711Z,2246.00
2023-04-24T12:06:59.708Z,2239.00
2023-04-24T12:07:59.720Z,2220.00
2023-04-24T12:09:04.877Z,2222.00
2023-04-24T12:10:01.096Z,2223.00
2023-04-24T12:10:59.659Z,2232.00
2023-04-24T12:11:59.610Z,2241.00
2023-04-24T12:12:59.581Z,2264.00
2023-04-24T12:13:59.533Z,2297.00
2023-04-24T12:14:59.775Z,2315.00
2023-04-24T12:15:59.521Z,2324.00
2023-04-24T12:16:59.423Z,2316.00
2023-04-24T12:17:59.420Z,2289.00
2023-04-24T12:18:59.330Z,2300.00
2023-04-24T12:19:59.329Z,2293.00
2023-04-24T12:21:01.259Z,2254.00
2023-04-24T12:21:59.363Z,2231.00
2023-04-24T12:22:59.381Z,2209.00